Domingo — EA7822 — position and weather

sailwx.info

Track history (hours):
 
Tides and Currents Weather Stations Pressure Air Temp Water Temp Dewpoint Dewpoint Depression Visibility Wind Speed Wind Dir Waves Ship Positions

Domingo

Last reported at 2017-Oct-20 06:44 UTC. Time now 2017-Oct-22 08:10 UTC.
Position N 41°13' E 001°44'.

Length 25 m.

Type: Fishing. MMSI: 224023970.

Date/timePositionNaut miles runAvg speedWind from/ knotsBaromVisibWave heightAir tempDewpointWater temp
2017-Oct-20 06:44N 41°13' E 001°44'0 0.0
2017-Oct-20 06:30N 41°13' E 001°44'4 7.5
2017-Oct-20 06:00N 41°10' E 001°48'5 9.4
2017-Oct-20 05:30N 41°08' E 001°53'2 4.7
2017-Oct-20 05:00N 41°08' E 001°50'4 8.5
2017-Oct-20 04:30N 41°08' E 001°44'2 4.0
2017-Oct-20 04:00N 41°07' E 001°42'3 6.0
2017-Oct-20 03:30N 41°08' E 001°46'4 9.0
2017-Oct-20 03:01N 41°12' E 001°44'1 0.0
2017-Oct-19 05:51N 41°13' E 001°44'3 7.8
2017-Oct-19 05:30N 41°10' E 001°46'3 6.0
2017-Oct-19 05:00N 41°08' E 001°43'3 5.8
2017-Oct-19 04:30N 41°10' E 001°45'3 0.1
2017-Oct-18 06:31N 41°13' E 001°44'0 0.1
2017-Oct-18 06:30N 41°13' E 001°44'2 4.6
2017-Oct-18 06:00N 41°11' E 001°45'3 5.2
2017-Oct-18 05:30N 41°08' E 001°46'2 3.1
2017-Oct-18 05:00N 41°08' E 001°45'0 0.1
2017-Oct-18 04:30N 41°08' E 001°45'2 3.7
2017-Oct-18 04:00N 41°07' E 001°42'6 0.3
2017-Oct-17 11:11N 41°13' E 001°44'0 0.0
2017-Oct-17 11:00N 41°13' E 001°44'0 0.0
2017-Oct-17 10:30N 41°13' E 001°44'0 0.0
2017-Oct-17 10:00N 41°13' E 001°44'0 0.0
2017-Oct-17 09:30N 41°13' E 001°44'0 0.0
2017-Oct-17 09:00N 41°13' E 001°44'0 0.0
2017-Oct-17 08:30N 41°13' E 001°44'0 0.0
2017-Oct-17 08:00N 41°13' E 001°44'0 0.1
2017-Oct-17 07:30N 41°13' E 001°44'0 0.2
2017-Oct-17 07:00N 41°13' E 001°44'1 1.7
2017-Oct-17 06:30N 41°12' E 001°44'3 6.1
2017-Oct-17 06:00N 41°09' E 001°42'3 6.0
2017-Oct-17 05:30N 41°07' E 001°45'1 1.7
2017-Oct-17 05:00N 41°08' E 001°45'0 0.2
2017-Oct-17 04:30N 41°08' E 001°45'0 0.5
2017-Oct-17 04:00N 41°08' E 001°45'0 0.2
2017-Oct-17 03:30N 41°08' E 001°45'0 0.4
2017-Oct-17 03:00N 41°08' E 001°45'0 0.2
2017-Oct-17 02:30N 41°08' E 001°45'0 0.8
2017-Oct-17 02:00N 41°08' E 001°46'3 5.9
2017-Oct-17 01:29N 41°06' E 001°47'510.1
2017-Oct-17 01:00N 41°07' E 001°41'3 0.9
2017-Oct-16 22:02N 41°10' E 001°40'010.5
2017-Oct-16 22:00N 41°10' E 001°40'4 8.4
2017-Oct-16 21:30N 41°13' E 001°44'0 0.0
2017-Oct-16 07:32N 41°13' E 001°44'0 0.0
2017-Oct-16 07:30N 41°13' E 001°44'3 5.5
2017-Oct-16 07:00N 41°11' E 001°42'5 8.6
2017-Oct-16 06:27N 41°07' E 001°38'0 0.1
2017-Oct-16 05:51N 41°07' E 001°38'0 0.8
2017-Oct-16 05:26N 41°07' E 001°38'1 1.6
2017-Oct-16 05:00N 41°08' E 001°38'0 0.4
2017-Oct-16 04:30N 41°08' E 001°38'1 1.0
2017-Oct-16 03:54N 41°08' E 001°39'0 0.4
2017-Oct-16 03:30N 41°08' E 001°39'1 0.2
2017-Oct-15 23:17N 41°08' E 001°40'2 8.4
2017-Oct-15 23:00N 41°10' E 001°42'  
2017-Oct-13 06:34N 41°13' E 001°44'0 6.1
2017-Oct-13 06:30N 41°13' E 001°44'5 9.9
2017-Oct-13 06:01N 41°08' E 001°46'0 1.0
2017-Oct-13 05:31N 41°07' E 001°46'1 1.5
2017-Oct-13 05:01N 41°08' E 001°45'4 7.1
2017-Oct-13 04:30N 41°07' E 001°40'2 0.4
2017-Oct-12 23:29N 41°09' E 001°39'4 9.4
2017-Oct-12 23:00N 41°12' E 001°44'  
2017-Oct-10 08:19N 41°13' E 001°44'0 0.0
2017-Oct-10 08:00N 41°13' E 001°44'0 0.0
2017-Oct-10 07:30N 41°13' E 001°44'0 0.2
2017-Oct-10 07:00N 41°13' E 001°44'  
Track history (hours):
 
Tides and Currents Weather Stations Pressure Air Temp Water Temp Dewpoint Dewpoint Depression Visibility Wind Speed Wind Dir Waves Ship Positions

Domingo

Last reported at 2017-Oct-20 06:44 UTC. Time now 2017-Oct-22 08:10 UTC.
Position N 41°13' E 001°44'.

Length 25 m.

Type: Fishing. MMSI: 224023970.

Date/timePositionNaut miles runAvg speedWind from/ knotsBaromVisibWave heightAir tempDewpointWater temp
2017-Oct-20 06:44N 41°13' E 001°44'0 0.0
2017-Oct-20 06:30N 41°13' E 001°44'4 7.5
2017-Oct-20 06:00N 41°10' E 001°48'5 9.4
2017-Oct-20 05:30N 41°08' E 001°53'2 4.7
2017-Oct-20 05:00N 41°08' E 001°50'4 8.5
2017-Oct-20 04:30N 41°08' E 001°44'2 4.0
2017-Oct-20 04:00N 41°07' E 001°42'3 6.0
2017-Oct-20 03:30N 41°08' E 001°46'4 9.0
2017-Oct-20 03:01N 41°12' E 001°44'1 0.0
2017-Oct-19 05:51N 41°13' E 001°44'3 7.8
2017-Oct-19 05:30N 41°10' E 001°46'3 6.0
2017-Oct-19 05:00N 41°08' E 001°43'3 5.8
2017-Oct-19 04:30N 41°10' E 001°45'3 0.1
2017-Oct-18 06:31N 41°13' E 001°44'0 0.1
2017-Oct-18 06:30N 41°13' E 001°44'2 4.6
2017-Oct-18 06:00N 41°11' E 001°45'3 5.2
2017-Oct-18 05:30N 41°08' E 001°46'2 3.1
2017-Oct-18 05:00N 41°08' E 001°45'0 0.1
2017-Oct-18 04:30N 41°08' E 001°45'2 3.7
2017-Oct-18 04:00N 41°07' E 001°42'6 0.3
2017-Oct-17 11:11N 41°13' E 001°44'0 0.0
2017-Oct-17 11:00N 41°13' E 001°44'0 0.0
2017-Oct-17 10:30N 41°13' E 001°44'0 0.0
2017-Oct-17 10:00N 41°13' E 001°44'0 0.0
2017-Oct-17 09:30N 41°13' E 001°44'0 0.0
2017-Oct-17 09:00N 41°13' E 001°44'0 0.0
2017-Oct-17 08:30N 41°13' E 001°44'0 0.0
2017-Oct-17 08:00N 41°13' E 001°44'0 0.1
2017-Oct-17 07:30N 41°13' E 001°44'0 0.2
2017-Oct-17 07:00N 41°13' E 001°44'1 1.7
2017-Oct-17 06:30N 41°12' E 001°44'3 6.1
2017-Oct-17 06:00N 41°09' E 001°42'3 6.0
2017-Oct-17 05:30N 41°07' E 001°45'1 1.7
2017-Oct-17 05:00N 41°08' E 001°45'0 0.2
2017-Oct-17 04:30N 41°08' E 001°45'0 0.5
2017-Oct-17 04:00N 41°08' E 001°45'0 0.2
2017-Oct-17 03:30N 41°08' E 001°45'0 0.4
2017-Oct-17 03:00N 41°08' E 001°45'0 0.2
2017-Oct-17 02:30N 41°08' E 001°45'0 0.8
2017-Oct-17 02:00N 41°08' E 001°46'3 5.9
2017-Oct-17 01:29N 41°06' E 001°47'510.1
2017-Oct-17 01:00N 41°07' E 001°41'3 0.9
2017-Oct-16 22:02N 41°10' E 001°40'010.5
2017-Oct-16 22:00N 41°10' E 001°40'4 8.4
2017-Oct-16 21:30N 41°13' E 001°44'0 0.0
2017-Oct-16 07:32N 41°13' E 001°44'0 0.0
2017-Oct-16 07:30N 41°13' E 001°44'3 5.5
2017-Oct-16 07:00N 41°11' E 001°42'5 8.6
2017-Oct-16 06:27N 41°07' E 001°38'0 0.1
2017-Oct-16 05:51N 41°07' E 001°38'0 0.8
2017-Oct-16 05:26N 41°07' E 001°38'1 1.6
2017-Oct-16 05:00N 41°08' E 001°38'0 0.4
2017-Oct-16 04:30N 41°08' E 001°38'1 1.0
2017-Oct-16 03:54N 41°08' E 001°39'0 0.4
2017-Oct-16 03:30N 41°08' E 001°39'1 0.2
2017-Oct-15 23:17N 41°08' E 001°40'2 8.4
2017-Oct-15 23:00N 41°10' E 001°42'  
2017-Oct-13 06:34N 41°13' E 001°44'0 6.1
2017-Oct-13 06:30N 41°13' E 001°44'5 9.9
2017-Oct-13 06:01N 41°08' E 001°46'0 1.0
2017-Oct-13 05:31N 41°07' E 001°46'1 1.5
2017-Oct-13 05:01N 41°08' E 001°45'4 7.1
2017-Oct-13 04:30N 41°07' E 001°40'2 0.4
2017-Oct-12 23:29N 41°09' E 001°39'4 9.4
2017-Oct-12 23:00N 41°12' E 001°44'  
2017-Oct-10 08:19N 41°13' E 001°44'0 0.0
2017-Oct-10 08:00N 41°13' E 001°44'0 0.0
2017-Oct-10 07:30N 41°13' E 001°44'0 0.2
2017-Oct-10 07:00N 41°13' E 001°44'  

Dump ship's entire track history